createdAt,value
2018-06-17T00:02:01.815Z,85.56
2018-06-17T00:04:31.157Z,85.33
2018-06-17T00:07:00.408Z,85.02
2018-06-17T00:09:29.926Z,84.69
2018-06-17T00:14:52.136Z,84.63
2018-06-17T00:17:21.304Z,84.49
2018-06-17T00:19:50.374Z,85.00
2018-06-17T00:22:19.687Z,85.74
2018-06-17T00:24:49.245Z,86.01
2018-06-17T00:27:18.562Z,86.49
2018-06-17T00:29:47.872Z,85.98
2018-06-17T00:32:22.012Z,86.05
2018-06-17T00:34:51.408Z,86.10
2018-06-17T00:37:20.618Z,86.10
2018-06-17T00:39:50.181Z,86.09
2018-06-17T00:42:31.667Z,85.87
2018-06-17T00:45:02.829Z,85.73
2018-06-17T00:48:50.761Z,86.19
2018-06-17T00:51:20.443Z,86.05
2018-06-17T00:53:49.749Z,86.15
2018-06-17T00:56:18.953Z,86.24
2018-06-17T01:01:40.717Z,86.95
2018-06-17T01:04:11.974Z,86.67
2018-06-17T01:06:44.772Z,86.45
2018-06-17T01:09:14.200Z,86.35
2018-06-17T01:11:43.580Z,85.45
2018-06-17T01:14:13.155Z,85.04
2018-06-17T01:16:42.114Z,85.06
2018-06-17T01:19:11.302Z,85.94
2018-06-17T01:21:40.657Z,85.84
2018-06-17T01:24:13.847Z,86.13
2018-06-17T01:26:43.185Z,85.18
2018-06-17T01:29:12.364Z,85.90
2018-06-17T01:31:41.372Z,85.12
2018-06-17T01:34:10.580Z,85.41
2018-06-17T01:36:39.588Z,85.18
2018-06-17T01:39:09.466Z,85.17
2018-06-17T01:41:38.915Z,85.36
2018-06-17T01:44:09.327Z,85.85
2018-06-17T01:46:38.753Z,87.84
2018-06-17T01:49:08.924Z,87.83
2018-06-17T01:51:38.276Z,88.12
2018-06-17T01:54:08.176Z,87.52
2018-06-17T01:56:37.187Z,87.42
2018-06-17T01:59:09.816Z,87.64
2018-06-17T02:01:39.058Z,88.11
2018-06-17T02:04:13.273Z,88.96
2018-06-17T02:06:47.479Z,88.95
2018-06-17T02:09:21.941Z,89.09
2018-06-17T02:11:56.002Z,89.26
2018-06-17T02:14:30.224Z,88.80
2018-06-17T02:16:59.428Z,88.50
2018-06-17T02:19:28.661Z,89.02
2018-06-17T02:22:18.425Z,88.82
2018-06-17T02:24:48.559Z,88.89
2018-06-17T02:27:26.964Z,89.33
2018-06-17T02:31:25.827Z,89.83
2018-06-17T02:34:27.508Z,89.87
2018-06-17T02:38:03.311Z,90.82
2018-06-17T02:40:33.390Z,91.01
2018-06-17T02:43:03.390Z,91.45
2018-06-17T02:45:42.198Z,91.50
2018-06-17T02:48:17.768Z,91.71
2018-06-17T02:50:54.156Z,91.96
2018-06-17T02:53:28.324Z,92.05
2018-06-17T02:55:57.617Z,91.59
2018-06-17T02:58:27.187Z,90.79
2018-06-17T03:00:56.447Z,90.50
2018-06-17T03:03:25.877Z,90.13
2018-06-17T03:06:11.060Z,90.08
2018-06-17T03:15:28.285Z,89.71
2018-06-17T03:17:57.473Z,89.43
2018-06-17T03:20:26.587Z,88.98
2018-06-17T03:22:55.985Z,88.80
2018-06-17T03:25:30.136Z,87.76
2018-06-17T03:28:04.952Z,87.24
2018-06-17T03:30:39.888Z,86.21
2018-06-17T03:33:14.200Z,85.29
2018-06-17T03:35:48.395Z,84.52
2018-06-17T03:38:21.612Z,83.57
2018-06-17T03:40:51.093Z,83.90
2018-06-17T03:43:20.285Z,83.51
2018-06-17T03:45:49.497Z,83.80
2018-06-17T03:48:19.285Z,83.66
2018-06-17T03:50:48.513Z,83.72
2018-06-17T03:53:17.976Z,83.38
2018-06-17T03:55:52.533Z,83.02
2018-06-17T03:58:23.017Z,82.62
2018-06-17T04:00:52.291Z,82.65
2018-06-17T04:03:21.455Z,82.53
2018-06-17T04:05:51.249Z,82.81
2018-06-17T04:08:20.359Z,82.85
2018-06-17T04:10:49.451Z,82.60
2018-06-17T04:13:18.888Z,82.32
2018-06-17T04:19:50.140Z,80.94
2018-06-17T04:22:19.223Z,80.48
2018-06-17T04:25:05.833Z,79.71
2018-06-17T04:27:35.135Z,78.85
2018-06-17T04:30:04.252Z,78.49
2018-06-17T04:32:33.591Z,77.63
2018-06-17T04:35:02.844Z,76.73
2018-06-17T04:37:36.014Z,76.64
2018-06-17T04:40:05.327Z,76.10
2018-06-17T04:42:34.480Z,76.28
2018-06-17T04:45:04.408Z,75.99
2018-06-17T04:47:33.662Z,74.90
2018-06-17T04:50:03.015Z,74.92
2018-06-17T04:52:32.601Z,74.90
2018-06-17T04:55:02.767Z,73.44
2018-06-17T04:57:31.701Z,72.49
2018-06-17T05:00:01.295Z,71.62
2018-06-17T05:02:30.597Z,71.43
2018-06-17T05:04:59.652Z,68.08
2018-06-17T05:07:29.077Z,66.02
2018-06-17T05:09:58.274Z,63.00
2018-06-17T05:12:27.521Z,61.04
2018-06-17T05:14:56.670Z,60.99
2018-06-17T05:17:25.732Z,60.81
2018-06-17T05:19:54.991Z,57.02
2018-06-17T05:22:25.599Z,56.50
2018-06-17T05:24:54.734Z,55.66
2018-06-17T05:27:23.730Z,54.51
2018-06-17T05:29:53.341Z,54.95
2018-06-17T05:32:22.310Z,52.81
2018-06-17T05:34:51.605Z,51.32
2018-06-17T05:37:20.841Z,49.12
2018-06-17T05:39:50.120Z,50.12
2018-06-17T05:42:19.097Z,48.25
2018-06-17T05:44:48.742Z,45.66
2018-06-17T05:47:19.382Z,46.44
2018-06-17T05:49:48.578Z,45.47
2018-06-17T05:52:19.120Z,46.35
2018-06-17T05:54:48.394Z,46.33
2018-06-17T05:57:17.616Z,47.85
2018-06-17T05:59:53.521Z,48.18
2018-06-17T06:02:23.156Z,46.45
2018-06-17T06:05:02.052Z,46.96
2018-06-17T06:07:31.416Z,47.86
2018-06-17T06:10:00.456Z,49.07
2018-06-17T06:12:29.809Z,47.43
2018-06-17T06:14:59.655Z,48.26
2018-06-17T06:17:28.759Z,48.13
2018-06-17T06:19:58.100Z,48.01
2018-06-17T06:22:27.300Z,47.84
2018-06-17T06:24:56.395Z,49.48
2018-06-17T06:27:25.400Z,47.90
2018-06-17T06:29:54.349Z,50.76
2018-06-17T06:32:23.368Z,54.18
2018-06-17T06:34:52.332Z,54.08
2018-06-17T06:37:21.494Z,52.39
2018-06-17T06:39:50.552Z,52.57
2018-06-17T06:42:19.745Z,53.49
2018-06-17T06:44:48.746Z,53.86
2018-06-17T06:47:17.832Z,54.24
2018-06-17T06:49:47.067Z,54.73
2018-06-17T06:52:16.161Z,54.92
2018-06-17T06:54:45.407Z,55.32
2018-06-17T06:57:14.377Z,54.28
2018-06-17T06:59:43.574Z,55.63
2018-06-17T07:02:23.595Z,55.24
2018-06-17T07:05:03.524Z,55.27
2018-06-17T07:07:43.877Z,55.23
2018-06-17T07:10:23.462Z,53.69
2018-06-17T07:12:53.675Z,53.88
2018-06-17T07:15:34.200Z,54.74
2018-06-17T07:18:13.979Z,54.44
2018-06-17T07:20:43.448Z,54.69
2018-06-17T07:23:12.761Z,53.08
2018-06-17T07:26:54.400Z,52.91
2018-06-17T07:29:38.590Z,53.95
2018-06-17T07:32:07.907Z,54.02
2018-06-17T07:34:37.011Z,53.08
2018-06-17T07:37:06.489Z,52.38
2018-06-17T07:41:43.982Z,52.97
2018-06-17T07:44:13.274Z,50.69
2018-06-17T07:46:42.466Z,52.43
2018-06-17T07:49:33.558Z,52.31
2018-06-17T07:52:15.326Z,51.89
2018-06-17T07:54:45.873Z,52.48
2018-06-17T07:57:16.074Z,51.77
2018-06-17T07:59:45.368Z,52.01
2018-06-17T08:02:15.021Z,51.68
2018-06-17T08:04:44.138Z,51.40
2018-06-17T08:07:13.592Z,50.89
2018-06-17T08:09:42.652Z,52.30
2018-06-17T08:12:12.239Z,50.63
2018-06-17T08:14:41.918Z,49.49
2018-06-17T08:17:11.172Z,50.54
2018-06-17T08:19:40.490Z,49.44
2018-06-17T08:22:09.653Z,48.44
2018-06-17T08:24:39.003Z,48.54
2018-06-17T08:27:08.048Z,48.26
2018-06-17T08:29:37.491Z,48.71
2018-06-17T08:32:06.648Z,48.10
2018-06-17T08:34:35.786Z,48.25
2018-06-17T08:37:04.986Z,47.63
2018-06-17T08:39:34.052Z,47.39
2018-06-17T08:42:03.099Z,46.00
2018-06-17T08:44:32.647Z,46.24
2018-06-17T08:47:01.597Z,48.19
2018-06-17T08:49:30.788Z,48.25
2018-06-17T08:51:59.844Z,47.38
2018-06-17T08:54:28.866Z,47.62
2018-06-17T08:56:57.874Z,46.08
2018-06-17T08:59:27.633Z,47.11
2018-06-17T09:01:56.766Z,46.40
2018-06-17T09:04:25.771Z,45.73
2018-06-17T09:06:55.070Z,45.75
2018-06-17T09:09:23.957Z,45.91
2018-06-17T09:11:52.984Z,45.20
2018-06-17T09:14:22.494Z,45.06
2018-06-17T09:16:51.493Z,44.65
2018-06-17T09:19:20.610Z,45.02
2018-06-17T09:21:50.046Z,44.57
2018-06-17T09:24:18.970Z,43.62
2018-06-17T09:26:48.109Z,43.32
2018-06-17T09:29:17.778Z,43.62
2018-06-17T09:31:47.058Z,44.16
2018-06-17T09:34:16.009Z,44.17
2018-06-17T09:36:45.854Z,42.28
2018-06-17T09:39:14.692Z,42.79
2018-06-17T09:41:43.587Z,41.99
2018-06-17T09:44:13.104Z,42.25
2018-06-17T09:46:42.063Z,41.50
2018-06-17T09:49:11.243Z,42.17
2018-06-17T09:51:40.586Z,40.51
2018-06-17T09:54:09.578Z,40.11
2018-06-17T09:56:38.509Z,40.87
2018-06-17T09:59:07.711Z,40.22
2018-06-17T10:01:36.789Z,40.26
2018-06-17T10:04:05.801Z,40.47
2018-06-17T10:06:35.105Z,38.63
2018-06-17T10:09:05.510Z,38.89
2018-06-17T10:11:34.487Z,39.14
2018-06-17T10:14:03.900Z,38.96
2018-06-17T10:16:33.050Z,39.00
2018-06-17T10:19:02.200Z,40.23
2018-06-17T10:21:31.746Z,40.50
2018-06-17T10:24:01.379Z,39.70
2018-06-17T10:26:31.188Z,39.91
2018-06-17T10:29:00.146Z,39.24
2018-06-17T10:31:29.259Z,38.64
2018-06-17T10:33:58.209Z,38.57
2018-06-17T10:36:27.260Z,38.97
2018-06-17T10:38:56.288Z,38.62
2018-06-17T10:41:25.179Z,38.56
2018-06-17T10:43:54.079Z,38.13
2018-06-17T10:46:23.041Z,37.97
2018-06-17T10:48:52.025Z,37.52
2018-06-17T10:51:21.272Z,37.85
2018-06-17T10:53:50.189Z,38.12
2018-06-17T10:56:20.159Z,37.80
2018-06-17T10:58:49.313Z,37.98
2018-06-17T11:01:18.359Z,38.38
2018-06-17T11:03:47.444Z,36.89
2018-06-17T11:06:16.881Z,38.64
2018-06-17T11:08:45.789Z,38.50
2018-06-17T11:11:14.808Z,37.27
2018-06-17T11:13:44.028Z,38.42
2018-06-17T11:16:13.161Z,38.97
2018-06-17T11:18:43.397Z,38.29
2018-06-17T11:21:12.562Z,36.62
2018-06-17T11:23:41.590Z,36.78
2018-06-17T11:26:11.255Z,35.08
2018-06-17T11:51:46.697Z,35.12
2018-06-17T11:54:16.151Z,34.57
2018-06-17T11:56:45.342Z,36.13
2018-06-17T11:59:14.461Z,35.93
2018-06-17T12:01:43.580Z,34.24
2018-06-17T12:04:12.531Z,33.31
2018-06-17T12:06:41.882Z,33.08
2018-06-17T12:09:11.883Z,34.70
2018-06-17T12:11:41.956Z,33.95
2018-06-17T12:14:11.086Z,33.22
2018-06-17T12:16:40.232Z,32.58
2018-06-17T12:19:09.442Z,32.21
2018-06-17T12:21:39.439Z,32.65
2018-06-17T12:24:08.705Z,31.65
2018-06-17T12:26:37.591Z,31.30
2018-06-17T12:29:06.788Z,31.90
2018-06-17T12:31:35.802Z,31.32
2018-06-17T12:34:05.014Z,30.40
2018-06-17T12:36:34.152Z,31.45
2018-06-17T12:39:03.452Z,31.21
2018-06-17T12:41:32.517Z,31.48
2018-06-17T12:44:02.060Z,30.73
2018-06-17T12:46:30.996Z,30.23
2018-06-17T12:49:00.255Z,28.33
2018-06-17T12:51:29.388Z,29.57
2018-06-17T12:53:58.489Z,30.63
2018-06-17T12:56:27.872Z,30.16
2018-06-17T12:58:57.475Z,29.62
2018-06-17T13:01:26.722Z,28.28
2018-06-17T13:03:55.706Z,27.88
2018-06-17T13:06:25.560Z,28.49
2018-06-17T13:08:55.532Z,27.37
2018-06-17T13:11:25.334Z,27.50
2018-06-17T13:13:54.533Z,27.69
2018-06-17T13:16:23.711Z,29.20
2018-06-17T13:18:54.351Z,34.82
2018-06-17T13:21:23.504Z,38.07
2018-06-17T13:23:52.513Z,37.52
2018-06-17T13:26:22.142Z,37.94
2018-06-17T13:28:51.141Z,38.32
2018-06-17T13:31:20.730Z,38.11
2018-06-17T13:33:50.809Z,38.72
2018-06-17T13:36:20.095Z,36.63
2018-06-17T13:38:49.163Z,38.72
2018-06-17T13:41:18.321Z,38.59
2018-06-17T13:43:47.289Z,38.25
2018-06-17T13:46:16.732Z,38.06
2018-06-17T13:48:45.679Z,38.10
2018-06-17T13:51:14.808Z,38.68
2018-06-17T13:53:43.927Z,38.62
2018-06-17T13:56:12.994Z,39.36
2018-06-17T13:58:42.133Z,39.53
2018-06-17T14:01:11.259Z,40.14
2018-06-17T14:03:40.443Z,39.84
2018-06-17T14:06:09.543Z,39.13
2018-06-17T14:08:38.658Z,38.66
2018-06-17T14:11:07.938Z,38.79
2018-06-17T14:13:38.607Z,38.31
2018-06-17T14:16:07.675Z,37.68
2018-06-17T14:18:36.883Z,36.66
2018-06-17T14:21:05.926Z,38.03
2018-06-17T14:23:34.905Z,40.36
2018-06-17T14:26:04.690Z,42.27
2018-06-17T14:28:33.900Z,42.76
2018-06-17T14:31:03.051Z,44.07
2018-06-17T14:33:32.399Z,43.21
2018-06-17T14:36:01.272Z,43.63
2018-06-17T14:38:30.266Z,45.51
2018-06-17T14:41:04.309Z,43.56
2018-06-17T14:43:38.525Z,43.94
2018-06-17T14:48:17.965Z,43.51
2018-06-17T14:50:52.272Z,43.71
2018-06-17T14:53:21.529Z,45.04
2018-06-17T14:55:50.667Z,44.63
2018-06-17T14:58:19.947Z,43.48
2018-06-17T15:00:49.135Z,44.13
2018-06-17T15:03:18.318Z,41.50
2018-06-17T15:05:47.948Z,40.54
2018-06-17T15:08:17.436Z,41.01
2018-06-17T15:10:46.401Z,40.38
2018-06-17T15:13:15.519Z,39.09
2018-06-17T15:15:45.313Z,39.02
2018-06-17T15:18:14.559Z,39.15
2018-06-17T15:20:43.477Z,38.94
2018-06-17T15:23:12.403Z,38.76
2018-06-17T15:25:41.272Z,38.37
2018-06-17T15:28:10.211Z,37.38
2018-06-17T15:30:39.878Z,36.99
2018-06-17T15:33:14.153Z,37.95
2018-06-17T15:35:48.325Z,37.40
2018-06-17T15:38:22.583Z,38.55
2018-06-17T15:40:57.349Z,38.52
2018-06-17T15:43:26.914Z,39.06
2018-06-17T15:45:56.368Z,40.30
2018-06-17T15:48:25.653Z,39.08
2018-06-17T15:50:54.785Z,39.22
2018-06-17T15:53:23.945Z,41.58
2018-06-17T15:55:53.245Z,43.41
2018-06-17T15:58:22.346Z,43.77
2018-06-17T16:00:51.558Z,43.04
2018-06-17T16:03:21.144Z,44.31
2018-06-17T16:05:50.141Z,44.23
2018-06-17T16:08:19.270Z,44.12
2018-06-17T16:10:48.832Z,44.56
2018-06-17T16:13:23.061Z,43.94
2018-06-17T16:15:57.564Z,45.24
2018-06-17T16:18:31.502Z,45.79
2018-06-17T16:21:03.516Z,46.38
2018-06-17T16:23:32.483Z,46.36
2018-06-17T16:26:01.735Z,46.35
2018-06-17T16:28:31.175Z,45.09
2018-06-17T16:31:00.188Z,45.39
2018-06-17T16:33:29.318Z,45.17
2018-06-17T16:35:58.523Z,45.09
2018-06-17T16:38:27.779Z,44.73
2018-06-17T16:40:56.801Z,46.43
2018-06-17T16:43:25.916Z,46.46
2018-06-17T16:45:54.921Z,47.53
2018-06-17T16:48:24.079Z,47.22
2018-06-17T16:50:58.157Z,47.10
2018-06-17T16:53:32.270Z,46.99
2018-06-17T16:56:06.590Z,46.76
2018-06-17T16:58:40.725Z,47.47
2018-06-17T17:01:09.810Z,48.53
2018-06-17T17:03:38.871Z,48.28
2018-06-17T17:06:07.861Z,48.51
2018-06-17T17:08:37.095Z,48.45
2018-06-17T17:11:06.171Z,49.04
2018-06-17T17:13:35.228Z,47.79
2018-06-17T17:16:04.859Z,48.82
2018-06-17T17:18:33.828Z,49.08
2018-06-17T17:21:03.010Z,50.28
2018-06-17T17:23:32.358Z,49.80
2018-06-17T17:26:01.367Z,50.61
2018-06-17T17:28:30.444Z,50.48
2018-06-17T17:31:00.049Z,49.22
2018-06-17T17:33:34.363Z,49.16
2018-06-17T17:36:08.856Z,49.58
2018-06-17T17:38:42.883Z,50.22
2018-06-17T17:41:12.603Z,51.60
2018-06-17T17:43:41.583Z,51.17
2018-06-17T17:46:16.092Z,51.92
2018-06-17T17:48:45.076Z,52.45
2018-06-17T17:51:14.358Z,53.23
2018-06-17T17:53:43.713Z,54.81
2018-06-17T17:56:12.695Z,54.97
2018-06-17T17:58:41.858Z,55.39
2018-06-17T18:01:11.410Z,55.37
2018-06-17T18:03:40.501Z,55.94
2018-06-17T18:06:09.507Z,55.34
2018-06-17T18:08:38.977Z,56.46
2018-06-17T18:11:08.169Z,56.82
2018-06-17T18:13:37.194Z,58.85
2018-06-17T18:16:06.465Z,71.32
2018-06-17T18:18:37.623Z,75.72
2018-06-17T18:22:36.558Z,84.96
2018-06-17T18:25:11.395Z,92.07
2018-06-17T18:27:45.855Z,92.04
2018-06-17T18:30:20.078Z,90.09
2018-06-17T18:32:54.157Z,92.88
2018-06-17T18:35:28.421Z,85.46
2018-06-17T18:37:58.170Z,87.13
2018-06-17T18:40:27.043Z,90.62
2018-06-17T18:42:56.061Z,93.58
2018-06-17T18:45:25.878Z,98.17
2018-06-17T18:47:55.187Z,98.36
2018-06-17T18:57:09.532Z,100.00
2018-06-17T18:59:38.508Z,100.00
2018-06-17T19:02:07.709Z,100.00
2018-06-17T19:04:37.024Z,100.00
2018-06-17T19:07:05.951Z,100.00
2018-06-17T19:09:41.170Z,100.00
2018-06-17T19:12:15.335Z,100.00
2018-06-17T19:14:49.805Z,100.00
2018-06-17T19:17:23.737Z,100.00
2018-06-17T19:19:52.811Z,100.00
2018-06-17T19:22:21.924Z,100.00
2018-06-17T19:24:51.004Z,100.00
2018-06-17T19:27:20.472Z,100.00
2018-06-17T19:29:49.599Z,100.00
2018-06-17T19:32:19.389Z,100.00
2018-06-17T19:34:48.929Z,100.00
2018-06-17T19:37:18.006Z,100.00
2018-06-17T19:39:47.094Z,100.00
2018-06-17T19:42:16.571Z,100.00
2018-06-17T19:44:46.168Z,100.00
2018-06-17T19:47:15.311Z,100.00
2018-06-17T19:49:50.075Z,100.00
2018-06-17T19:52:24.265Z,100.00
2018-06-17T19:54:58.380Z,100.00
2018-06-17T19:57:32.397Z,100.00
2018-06-17T20:00:06.407Z,100.00
2018-06-17T20:02:35.451Z,100.00
2018-06-17T20:05:04.570Z,100.00
2018-06-17T20:07:33.633Z,100.00
2018-06-17T20:10:02.672Z,100.00
2018-06-17T20:12:31.781Z,100.00
2018-06-17T20:15:00.794Z,100.00
2018-06-17T20:17:29.974Z,100.00
2018-06-17T20:19:58.966Z,100.00
2018-06-17T20:22:28.618Z,100.00
2018-06-17T20:24:57.674Z,100.00
2018-06-17T20:27:26.730Z,100.00
2018-06-17T20:29:55.931Z,100.00
2018-06-17T20:32:29.922Z,100.00
2018-06-17T20:35:04.395Z,100.00
2018-06-17T20:37:38.964Z,100.00
2018-06-17T20:40:13.372Z,100.00
2018-06-17T20:42:47.473Z,100.00
2018-06-17T20:45:16.688Z,100.00
2018-06-17T20:47:45.708Z,100.00
2018-06-17T20:50:14.820Z,100.00
2018-06-17T20:52:44.380Z,100.00
2018-06-17T20:55:13.454Z,100.00
2018-06-17T20:57:42.505Z,100.00
2018-06-17T21:00:11.618Z,100.00
2018-06-17T21:02:40.498Z,100.00
2018-06-17T21:05:09.577Z,100.00
2018-06-17T21:07:38.644Z,100.00
2018-06-17T21:10:07.848Z,100.00
2018-06-17T21:12:36.852Z,100.00
2018-06-17T21:15:09.909Z,100.00
2018-06-17T21:17:39.056Z,100.00
2018-06-17T21:20:13.351Z,100.00
2018-06-17T21:22:47.374Z,100.00
2018-06-17T21:25:21.396Z,100.00
2018-06-17T21:27:52.546Z,100.00
2018-06-17T21:30:22.499Z,100.00
2018-06-17T21:32:51.320Z,100.00
2018-06-17T21:35:20.314Z,100.00
2018-06-17T21:37:49.520Z,100.00
2018-06-17T21:40:18.533Z,100.00
2018-06-17T21:42:47.740Z,100.00
2018-06-17T21:45:17.250Z,100.00
2018-06-17T21:47:46.443Z,100.00
2018-06-17T21:50:15.419Z,100.00
2018-06-17T21:52:44.392Z,100.00
2018-06-17T21:55:13.539Z,100.00
2018-06-17T21:57:42.513Z,100.00
2018-06-17T22:00:11.557Z,100.00
2018-06-17T22:02:42.404Z,100.00
2018-06-17T22:05:11.409Z,100.00
2018-06-17T22:07:45.885Z,100.00
2018-06-17T22:10:20.283Z,100.00
2018-06-17T22:13:04.092Z,100.00
2018-06-17T22:15:38.088Z,100.00
2018-06-17T22:18:07.091Z,100.00
2018-06-17T22:20:36.203Z,100.00
2018-06-17T22:23:05.337Z,100.00
2018-06-17T22:25:34.887Z,100.00
2018-06-17T22:28:04.021Z,100.00
2018-06-17T22:30:33.060Z,100.00
2018-06-17T22:33:02.571Z,100.00
2018-06-17T22:35:31.564Z,100.00
2018-06-17T22:38:00.613Z,100.00
2018-06-17T22:40:29.781Z,100.00
2018-06-17T22:42:58.859Z,100.00
2018-06-17T22:45:27.813Z,100.00
2018-06-17T22:47:59.621Z,100.00
2018-06-17T22:50:28.843Z,100.00
2018-06-17T22:53:08.731Z,100.00
2018-06-17T22:55:37.834Z,100.00
2018-06-17T22:58:12.085Z,100.00
2018-06-17T23:00:46.314Z,100.00
2018-06-17T23:03:20.986Z,100.00
2018-06-17T23:05:55.134Z,100.00
2018-06-17T23:08:29.630Z,100.00
2018-06-17T23:10:58.629Z,100.00
2018-06-17T23:13:27.800Z,100.00
2018-06-17T23:15:57.485Z,100.00
2018-06-17T23:18:26.505Z,100.00
2018-06-17T23:20:55.582Z,100.00
2018-06-17T23:23:24.790Z,100.00
2018-06-17T23:25:53.778Z,100.00
2018-06-17T23:28:22.881Z,100.00
2018-06-17T23:30:51.940Z,100.00
2018-06-17T23:33:21.036Z,100.00
2018-06-17T23:35:50.134Z,100.00
2018-06-17T23:38:19.969Z,100.00
2018-06-17T23:40:49.014Z,100.00
2018-06-17T23:43:18.034Z,100.00
2018-06-17T23:45:52.084Z,100.00
2018-06-17T23:48:26.070Z,100.00
2018-06-17T23:51:00.391Z,100.00
2018-06-17T23:53:34.503Z,100.00
2018-06-17T23:56:07.810Z,100.00
2018-06-17T23:58:37.679Z,100.00
